Time;durP1;ratioP1;P1;durP2;ratioP2;P2;SDS_P1;SDS_P2;PMS_P1;PMS_P2;Temp;Humidity;BMP_temperature;BMP_pressure;BME280_temperature;BME280_humidity;BME280_pressure;Samples;Min_cycle;Max_cycle;Signal;HPM_P1;HPM_P2
2022/05/08 00:01:53;;;;;;;4.70;3.83;;;;;;;12.00;88.24;101303.50;5052112;28;20205;-72
2022/05/08 00:04:18;;;;;;;4.03;3.73;;;;;;;12.00;88.98;101308.16;5052030;28;20175;-72
2022/05/08 00:06:44;;;;;;;7.30;4.60;;;;;;;11.91;88.63;101295.16;5051888;28;20569;-72
2022/05/08 00:09:09;;;;;;;4.77;4.03;;;;;;;12.02;89.04;101306.78;5051849;28;20504;-72
2022/05/08 00:11:35;;;;;;;3.87;3.57;;;;;;;12.24;88.93;101303.38;5052011;28;20282;-72
2022/05/08 00:14:00;;;;;;;5.10;3.97;;;;;;;12.19;88.02;101297.97;5051917;28;20533;-72
2022/05/08 00:16:25;;;;;;;7.30;4.23;;;;;;;12.01;88.05;101304.34;5047427;28;20502;-72
2022/05/08 00:18:51;;;;;;;8.40;4.53;;;;;;;11.81;89.55;101300.78;5044275;28;20182;-71
2022/05/08 00:21:16;;;;;;;4.27;3.87;;;;;;;11.88;89.42;101301.25;5051454;28;20202;-72
2022/05/08 00:23:41;;;;;;;8.63;4.50;;;;;;;11.79;89.51;101300.28;5051368;28;20277;-72
2022/05/08 00:26:08;;;;;;;6.33;3.93;;;;;;;11.69;89.55;101296.84;5051750;28;20246;-71
2022/05/08 00:28:38;;;;;;;4.40;4.00;;;;;;;11.59;90.98;101295.13;5051458;28;20172;-72
2022/05/08 00:31:03;;;;;;;4.70;4.23;;;;;;;11.70;91.23;101296.56;5051713;28;20251;-72
2022/05/08 00:33:30;;;;;;;5.70;4.27;;;;;;;11.56;91.39;101303.91;5051924;28;20512;-72
2022/05/08 00:35:55;;;;;;;7.13;5.27;;;;;;;11.46;91.64;101304.06;5051529;28;20167;-72
2022/05/08 00:38:20;;;;;;;4.60;4.13;;;;;;;11.26;93.20;101303.22;5051371;28;20167;-72
2022/05/08 00:40:46;;;;;;;6.73;4.73;;;;;;;11.20;94.43;101298.94;5051322;28;20175;-72
2022/05/08 00:43:26;;;;;;;5.00;4.60;;;;;;;11.05;95.07;101301.88;5051351;28;20186;-71
2022/05/08 00:45:52;;;;;;;7.13;5.57;;;;;;;10.92;95.35;101300.69;5031116;28;20234;-71
2022/05/08 00:48:18;;;;;;;6.03;5.03;;;;;;;10.84;96.21;101298.56;5031469;28;20171;-71
2022/05/08 00:50:44;;;;;;;6.93;5.33;;;;;;;10.81;96.41;101306.56;5031330;28;20199;-71
2022/05/08 00:53:09;;;;;;;9.60;5.63;;;;;;;10.71;96.79;101305.59;5031407;28;20179;-71
2022/05/08 00:55:35;;;;;;;10.40;5.33;;;;;;;10.71;96.58;101310.25;5031335;28;20184;-72
2022/05/08 00:58:02;;;;;;;6.43;5.20;;;;;;;10.73;96.88;101308.84;5031498;28;20286;-72
2022/05/08 01:00:27;;;;;;;10.20;5.87;;;;;;;10.62;96.59;101309.25;5013799;28;20630;-71
2022/05/08 01:02:53;;;;;;;10.17;5.70;;;;;;;10.81;96.85;101314.75;5031575;28;20203;-71
2022/05/08 01:05:18;;;;;;;7.00;5.20;;;;;;;10.60;97.12;101315.00;5031142;28;20184;-71
2022/05/08 01:07:43;;;;;;;12.97;5.63;;;;;;;10.55;97.38;101301.38;5031090;28;20263;-72
2022/05/08 01:10:09;;;;;;;8.17;5.47;;;;;;;10.48;96.56;101317.31;5031084;28;20270;-72
2022/05/08 01:12:35;;;;;;;7.07;4.83;;;;;;;10.20;96.39;101324.38;5031282;28;20198;-71
2022/05/08 01:15:18;;;;;;;8.43;4.10;;;;;;;10.02;95.70;101323.19;5031128;28;20172;-71
2022/05/08 01:17:44;;;;;;;7.43;4.47;;;;;;;10.02;95.59;101325.09;5030920;28;20194;-72
2022/05/08 01:20:10;;;;;;;6.80;4.10;;;;;;;9.90;96.00;101319.19;5013232;28;20639;-72
2022/05/08 01:22:36;;;;;;;9.70;4.73;;;;;;;9.92;96.65;101319.72;5030862;28;20210;-71
2022/05/08 01:25:02;;;;;;;7.97;4.53;;;;;;;10.08;96.68;101326.66;5031062;28;20187;-72
2022/05/08 01:27:28;;;;;;;9.00;6.03;;;;;;;10.08;97.32;101330.22;5030819;28;20183;-72
2022/05/08 01:29:54;;;;;;;12.07;4.17;;;;;;;10.27;97.21;101330.38;5030842;28;20172;-71
2022/05/08 01:32:19;;;;;;;6.37;5.43;;;;;;;10.26;97.19;101330.63;5030784;28;20306;-71
2022/05/08 01:34:45;;;;;;;8.87;5.40;;;;;;;10.20;96.85;101331.75;5030699;28;20191;-71
2022/05/08 01:37:10;;;;;;;10.73;5.30;;;;;;;10.14;95.67;101340.00;5030666;28;20184;-72
2022/05/08 01:39:36;;;;;;;7.40;4.10;;;;;;;10.05;94.84;101336.25;5030714;28;20183;-72
2022/05/08 01:42:04;;;;;;;7.10;4.13;;;;;;;10.08;94.98;101352.06;5023095;28;20609;-71
2022/05/08 01:44:30;;;;;;;9.50;4.07;;;;;;;10.07;93.29;101353.16;5052874;28;20543;-71
2022/05/08 01:49:40;;;;;;;12.33;5.17;;;;;;;9.80;92.23;101356.34;5054684;28;20278;-71
2022/05/08 01:52:06;;;;;;;5.97;3.43;;;;;;;9.75;93.46;101355.59;5054610;28;20270;-71
2022/05/08 01:54:31;;;;;;;10.30;4.23;;;;;;;9.80;93.93;101364.53;5054644;28;20214;-71
2022/05/08 01:56:56;;;;;;;14.50;4.67;;;;;;;9.64;93.06;101370.38;5054334;28;20228;-72
2022/05/08 01:59:21;;;;;;;9.20;3.53;;;;;;;9.46;93.63;101359.03;5054372;28;20594;-72
2022/05/08 02:01:47;;;;;;;6.77;3.00;;;;;;;9.31;92.35;101355.56;5054213;28;20745;-71
2022/05/08 02:04:15;;;;;;;8.60;3.37;;;;;;;9.14;91.74;101361.38;5054250;28;20171;-71
2022/05/08 02:06:46;;;;;;;8.17;3.57;;;;;;;9.07;91.98;101369.03;5054410;28;20176;-71
2022/05/08 02:09:12;;;;;;;15.20;4.23;;;;;;;9.20;91.77;101371.97;5054026;28;20171;-72
2022/05/08 02:11:37;;;;;;;9.27;3.67;;;;;;;9.06;92.01;101370.94;5054013;28;20297;-71
2022/05/08 02:14:04;;;;;;;16.73;4.27;;;;;;;9.23;91.09;101389.69;5054467;28;20187;-71
2022/05/08 02:16:30;;;;;;;6.50;3.20;;;;;;;8.95;90.58;101370.16;5053799;28;20175;-72
2022/05/08 02:18:55;;;;;;;8.57;3.30;;;;;;;8.78;90.63;101371.56;5053779;28;20233;-72
2022/05/08 02:21:21;;;;;;;9.10;3.37;;;;;;;8.87;91.00;101392.53;5053818;28;20203;-72
2022/05/08 02:23:47;;;;;;;16.23;3.27;;;;;;;8.65;91.25;101389.31;5053769;28;20263;-72
2022/05/08 02:26:12;;;;;;;13.00;3.50;;;;;;;8.62;90.82;101384.41;5053804;28;20250;-71
2022/05/08 02:28:38;;;;;;;10.33;3.00;;;;;;;8.69;91.26;101389.59;5053685;28;20225;-71
2022/05/08 02:31:04;;;;;;;10.47;2.60;;;;;;;8.67;90.67;101381.66;5053751;28;20213;-71
2022/05/08 02:33:29;;;;;;;13.47;3.47;;;;;;;8.62;91.22;101385.22;5053961;28;20521;-72
2022/05/08 02:35:54;;;;;;;7.77;2.87;;;;;;;8.69;90.82;101392.31;5053672;28;20211;-71
2022/05/08 02:38:20;;;;;;;12.43;3.30;;;;;;;8.59;90.66;101385.78;5053510;28;20615;-71
2022/05/08 02:40:45;;;;;;;10.83;3.20;;;;;;;8.55;90.53;101386.63;5053395;28;20278;-72
2022/05/08 02:43:10;;;;;;;11.07;3.67;;;;;;;8.43;90.89;101386.09;5053426;28;20207;-72
2022/05/08 02:45:36;;;;;;;6.40;2.97;;;;;;;8.34;89.79;101392.06;5053519;28;20182;-72
2022/05/08 02:48:01;;;;;;;11.13;3.60;;;;;;;8.33;91.22;101392.31;5053236;28;20182;-72
2022/05/08 02:50:26;;;;;;;14.33;2.97;;;;;;;8.34;90.90;101402.94;5053302;28;20187;-72
2022/05/08 02:52:52;;;;;;;5.03;2.23;;;;;;;8.35;90.70;101404.59;5053595;28;20253;-71
2022/05/08 03:00:47;;;;;;;10.17;3.70;;;;;;;8.54;90.78;101395.88;5053245;28;20205;-71
2022/05/08 03:03:14;;;;;;;10.33;3.40;;;;;;;8.45;90.63;101406.50;5053008;28;20678;-72
2022/05/08 03:05:44;;;;;;;11.57;3.20;;;;;;;8.27;91.59;101407.03;5052525;28;20237;-71
2022/05/08 03:08:11;;;;;;;7.10;4.20;;;;;;;8.14;91.85;101394.78;5052285;28;20186;-71
2022/05/08 03:13:20;;;;;;;7.67;3.50;;;;;;;8.03;93.38;101395.84;5053724;28;20186;-72
2022/05/08 03:15:47;;;;;;;9.90;3.37;;;;;;;8.05;93.54;101402.63;5054600;28;20179;-71
2022/05/08 03:18:12;;;;;;;6.17;2.37;;;;;;;8.17;93.63;101405.09;5052394;28;20172;-72
2022/05/08 03:20:37;;;;;;;9.23;2.97;;;;;;;8.07;93.32;101407.81;5052497;28;20180;-71
2022/05/08 03:23:03;;;;;;;11.87;3.50;;;;;;;7.88;93.81;101399.34;5052089;28;20679;-71
2022/05/08 03:25:29;;;;;;;8.27;3.10;;;;;;;7.99;94.25;101408.38;5052203;28;20175;-72
2022/05/08 03:27:54;;;;;;;10.20;2.67;;;;;;;7.98;94.00;101409.44;5052858;28;20221;-71
2022/05/08 03:30:20;;;;;;;6.63;2.83;;;;;;;7.89;94.25;101408.34;5052751;28;20178;-71
2022/05/08 03:32:46;;;;;;;10.30;2.20;;;;;;;8.00;94.59;101416.25;5052982;28;20190;-71
2022/05/08 03:35:11;;;;;;;8.77;3.10;;;;;;;8.03;93.94;101417.59;5052768;28;20615;-72
2022/05/08 03:37:36;;;;;;;8.97;3.07;;;;;;;8.07;93.50;101418.69;5052286;28;20182;-71
2022/05/08 03:40:02;;;;;;;6.37;3.17;;;;;;;8.19;92.70;101427.41;5052839;28;20190;-71
2022/05/08 03:42:27;;;;;;;8.90;3.23;;;;;;;8.23;92.24;101420.34;5052435;28;20576;-71
2022/05/08 03:44:54;;;;;;;12.97;2.70;;;;;;;8.23;90.94;101419.53;5052568;28;20688;-71
2022/05/08 03:47:20;;;;;;;10.10;2.70;;;;;;;8.07;91.36;101429.59;5052277;28;20250;-72
2022/05/08 03:49:45;;;;;;;9.57;2.60;;;;;;;8.16;91.18;101424.44;5052598;28;20559;-71
2022/05/08 03:52:12;;;;;;;9.80;2.80;;;;;;;7.91;91.34;101417.84;5052653;28;20207;-71
2022/05/08 03:54:38;;;;;;;6.17;2.60;;;;;;;7.68;92.70;101412.94;5052456;28;20172;-71
2022/05/08 03:57:03;;;;;;;7.67;2.50;;;;;;;7.73;93.20;101413.75;5052128;28;20181;-71
2022/05/08 03:59:29;;;;;;;7.73;2.93;;;;;;;7.54;92.86;101422.69;5052308;28;20245;-72
2022/05/08 04:01:55;;;;;;;7.73;2.83;;;;;;;7.67;93.40;101425.72;5052478;28;20276;-71
2022/05/08 04:04:21;;;;;;;10.03;2.17;;;;;;;7.72;92.89;101420.28;5051963;28;20597;-71
2022/05/08 04:06:46;;;;;;;11.50;3.40;;;;;;;7.53;92.58;101419.13;5051536;28;20163;-73
2022/05/08 04:09:11;;;;;;;15.10;3.87;;;;;;;7.36;93.19;101421.22;5051895;28;20175;-72
2022/05/08 04:11:37;;;;;;;8.50;2.63;;;;;;;7.49;93.45;101415.31;5052051;28;20207;-71
2022/05/08 04:14:02;;;;;;;10.83;2.80;;;;;;;7.60;93.49;101427.03;5052376;28;20204;-72
2022/05/08 04:16:28;;;;;;;5.93;2.37;;;;;;;7.47;93.03;101415.56;5052225;28;20228;-72
2022/05/08 04:18:53;;;;;;;16.00;2.53;;;;;;;7.45;92.94;101423.19;5051779;28;20225;-72
2022/05/08 04:21:19;;;;;;;13.93;2.80;;;;;;;7.59;93.99;101422.69;5051765;28;20195;-71
2022/05/08 04:26:30;;;;;;;12.10;2.83;;;;;;;7.60;92.80;101433.28;5051523;28;20657;-72
2022/05/08 04:28:56;;;;;;;14.67;3.40;;;;;;;7.54;93.13;101428.94;5051524;28;20546;-71
2022/05/08 04:31:22;;;;;;;10.87;2.80;;;;;;;7.53;93.57;101434.63;5051628;28;20178;-71
2022/05/08 04:33:47;;;;;;;8.50;2.80;;;;;;;7.44;93.26;101435.13;5051677;28;20171;-72
2022/05/08 04:36:14;;;;;;;7.47;3.00;;;;;;;7.44;93.63;101432.41;5051655;28;20171;-71
2022/05/08 04:38:39;;;;;;;10.50;3.50;;;;;;;7.59;94.31;101433.56;5051716;28;20175;-71
2022/05/08 04:41:05;;;;;;;5.80;2.60;;;;;;;7.66;93.20;101436.84;5051416;28;20340;-72
2022/05/08 04:43:30;;;;;;;8.83;2.83;;;;;;;7.73;92.79;101440.13;5051307;28;20270;-71
2022/05/08 04:45:55;;;;;;;4.80;2.67;;;;;;;7.56;92.18;101448.50;5051339;28;20253;-72
2022/05/08 04:48:21;;;;;;;8.50;3.00;;;;;;;7.38;93.28;101438.13;5051202;28;20623;-71
2022/05/08 04:50:46;;;;;;;13.07;3.00;;;;;;;7.64;94.05;101447.97;5051159;28;20171;-71
2022/05/08 04:53:11;;;;;;;9.63;3.80;;;;;;;7.79;92.70;101446.41;5050886;28;20674;-72
2022/05/08 04:55:36;;;;;;;6.37;2.80;;;;;;;7.78;91.56;101452.91;5050865;28;20265;-72
2022/05/08 04:58:02;;;;;;;9.60;3.00;;;;;;;7.83;90.99;101455.69;5050705;28;20186;-72
2022/05/08 05:00:28;;;;;;;4.50;2.70;;;;;;;7.92;90.15;101463.03;5051089;28;20179;-72
2022/05/08 05:02:53;;;;;;;12.50;3.50;;;;;;;7.87;90.01;101459.47;5050755;28;20203;-72
2022/05/08 05:05:19;;;;;;;8.27;3.23;;;;;;;7.88;89.97;101469.28;5050766;28;20211;-73
2022/05/08 05:07:44;;;;;;;4.57;2.40;;;;;;;7.99;89.67;101474.50;5050617;28;20626;-71
2022/05/08 05:10:11;;;;;;;7.90;3.40;;;;;;;7.80;88.97;101473.31;5050933;28;20167;-72
2022/05/08 05:12:37;;;;;;;6.77;3.07;;;;;;;7.82;90.24;101482.06;5050645;28;20642;-71
2022/05/08 05:15:04;;;;;;;6.33;2.93;;;;;;;7.87;90.31;101486.69;5032816;28;20556;-72
2022/05/08 05:17:29;;;;;;;10.00;3.13;;;;;;;7.99;89.60;101484.56;5050381;28;20167;-71
2022/05/08 05:19:55;;;;;;;8.23;2.63;;;;;;;8.08;88.30;101491.09;5032041;28;20546;-72
2022/05/08 05:22:21;;;;;;;14.27;3.90;;;;;;;7.87;88.30;101489.41;5050515;28;20227;-72
2022/05/08 05:24:47;;;;;;;8.10;3.17;;;;;;;7.73;88.28;101497.25;5050714;28;20203;-72
2022/05/08 05:27:12;;;;;;;7.53;2.93;;;;;;;7.74;88.96;101496.16;5050432;28;20317;-71
2022/05/08 05:29:37;;;;;;;10.20;2.43;;;;;;;7.70;89.27;101503.22;5050705;28;20603;-71
2022/05/08 05:32:03;;;;;;;5.30;3.07;;;;;;;7.92;88.97;101506.56;5050396;28;20194;-71
2022/05/08 05:34:28;;;;;;;8.80;2.70;;;;;;;7.96;87.27;101506.88;5050486;28;20167;-72
2022/05/08 05:36:54;;;;;;;8.17;3.10;;;;;;;8.10;86.41;101513.44;5050460;28;20167;-71
2022/05/08 05:39:19;;;;;;;6.53;2.93;;;;;;;8.26;86.37;101515.09;5050331;28;20171;-71
2022/05/08 05:41:45;;;;;;;6.57;2.80;;;;;;;8.44;85.58;101519.25;5050526;28;20210;-71
2022/05/08 05:44:11;;;;;;;6.53;3.03;;;;;;;8.21;85.02;101523.25;5050363;28;20643;-72
2022/05/08 05:49:20;;;;;;;6.37;2.60;;;;;;;8.08;84.88;101523.75;5050602;28;20209;-72
2022/05/08 05:51:45;;;;;;;5.53;2.13;;;;;;;8.10;85.49;101528.91;5050269;28;20171;-72
2022/05/08 05:54:11;;;;;;;9.20;2.97;;;;;;;8.02;85.05;101531.09;5050313;28;20167;-71
2022/05/08 05:56:37;;;;;;;10.03;3.57;;;;;;;8.04;85.60;101525.38;5050165;28;20840;-71
2022/05/08 05:59:02;;;;;;;8.57;3.03;;;;;;;8.18;85.26;101534.66;5050137;28;20571;-71
2022/05/08 06:01:28;;;;;;;5.73;2.17;;;;;;;8.31;84.69;101533.34;5050049;28;20195;-74
2022/05/08 06:03:53;;;;;;;5.57;2.23;;;;;;;8.11;84.16;101533.31;5050146;28;20705;-71
2022/05/08 06:06:19;;;;;;;12.67;2.63;;;;;;;8.33;83.68;101536.63;5050218;28;20203;-71
2022/05/08 06:08:44;;;;;;;6.10;2.67;;;;;;;8.28;83.53;101545.59;5049993;28;20206;-71
2022/05/08 06:11:10;;;;;;;6.73;2.37;;;;;;;8.20;83.29;101543.38;5050123;28;20175;-72
2022/05/08 06:13:35;;;;;;;6.17;2.53;;;;;;;8.26;83.40;101544.22;5050129;28;20258;-71
2022/05/08 06:16:00;;;;;;;9.03;2.73;;;;;;;8.31;82.80;101536.88;5050077;28;20191;-71
2022/05/08 06:18:26;;;;;;;4.30;2.07;;;;;;;8.26;82.29;101542.31;5049964;28;20535;-71
2022/05/08 06:20:53;;;;;;;7.50;2.50;;;;;;;8.58;81.72;101538.59;5050093;28;20266;-72
2022/05/08 06:23:18;;;;;;;9.77;2.50;;;;;;;8.69;80.81;101544.88;5049687;28;20211;-70
2022/05/08 06:25:44;;;;;;;6.67;2.73;;;;;;;8.78;80.13;101545.94;5049976;28;20179;-71
2022/05/08 06:28:09;;;;;;;4.30;1.70;;;;;;;8.80;78.66;101539.13;5049809;28;20506;-71
2022/05/08 06:30:35;;;;;;;4.27;1.17;;;;;;;8.95;76.99;101536.41;5052162;28;20548;-71
2022/05/08 06:33:00;;;;;;;5.27;1.93;;;;;;;9.04;77.42;101546.78;5053609;28;20175;-70
2022/05/08 06:35:25;;;;;;;7.30;2.23;;;;;;;9.00;76.88;101545.69;5053427;28;20225;-71
2022/05/08 06:37:51;;;;;;;5.63;1.67;;;;;;;8.64;76.83;101535.59;5053418;28;20182;-71
2022/05/08 06:40:17;;;;;;;6.13;1.40;;;;;;;9.02;77.02;101544.31;5053347;28;20631;-71
2022/05/08 06:42:43;;;;;;;5.27;1.80;;;;;;;8.88;75.31;101538.59;5053102;28;20207;-71
2022/05/08 06:45:09;;;;;;;7.60;1.60;;;;;;;8.80;75.56;101532.88;5053226;28;20171;-71
2022/05/08 06:47:34;;;;;;;6.63;1.60;;;;;;;8.61;75.58;101535.31;5052907;28;20266;-71
2022/05/08 06:50:00;;;;;;;2.87;1.73;;;;;;;8.65;75.59;101529.06;5052993;28;20252;-71
2022/05/08 06:52:25;;;;;;;3.00;1.57;;;;;;;8.56;75.45;101530.69;5053090;28;20745;-71
2022/05/08 06:54:51;;;;;;;5.27;1.47;;;;;;;8.67;75.82;101536.94;5053360;28;20221;-71
2022/05/08 06:57:16;;;;;;;5.33;2.57;;;;;;;8.99;75.70;101535.88;5052659;28;20167;-71
2022/05/08 07:02:25;;;;;;;5.70;1.77;;;;;;;9.00;74.59;101537.50;5052831;28;20238;-71
2022/05/08 07:04:51;;;;;;;7.07;1.73;;;;;;;9.19;74.39;101542.13;5052534;28;20190;-70
2022/05/08 07:07:16;;;;;;;3.00;1.80;;;;;;;9.16;73.03;101533.66;5052627;28;20178;-71
2022/05/08 07:09:41;;;;;;;7.03;1.73;;;;;;;9.02;73.87;101536.16;5052650;28;20168;-71
2022/05/08 07:12:07;;;;;;;4.07;1.70;;;;;;;9.22;73.95;101548.91;5052886;28;20540;-71
2022/05/08 07:14:32;;;;;;;3.03;1.83;;;;;;;9.34;72.83;101545.91;5052597;28;20229;-71
2022/05/08 07:16:58;;;;;;;5.13;1.43;;;;;;;9.22;73.33;101541.56;5052602;28;20179;-71
2022/05/08 07:19:23;;;;;;;5.17;1.77;;;;;;;9.38;73.12;101545.06;5052807;28;20524;-71
2022/05/08 07:21:49;;;;;;;5.60;1.50;;;;;;;9.37;73.40;101534.44;5052630;28;20355;-71
2022/05/08 07:24:14;;;;;;;9.07;1.70;;;;;;;9.40;72.94;101542.06;5052413;28;20179;-72
2022/05/08 07:26:40;;;;;;;5.17;1.60;;;;;;;9.50;73.29;101542.88;5044462;28;20291;-71
2022/05/08 07:29:06;;;;;;;6.10;1.83;;;;;;;9.67;73.45;101553.44;5050965;28;20190;-72
2022/05/08 07:31:32;;;;;;;4.73;1.93;;;;;;;9.72;72.82;101550.72;5052811;28;20176;-73
2022/05/08 07:36:42;;;;;;;6.27;1.53;;;;;;;9.84;71.35;101548.50;5052213;28;20170;-72
2022/05/08 07:39:07;;;;;;;6.23;1.57;;;;;;;9.51;69.66;101549.94;5051168;28;20175;-72
2022/05/08 07:41:32;;;;;;;3.20;1.40;;;;;;;9.60;70.62;101552.13;5047741;28;20229;-71
2022/05/08 07:43:58;;;;;;;3.63;1.23;;;;;;;9.67;70.38;101552.63;5052080;28;20195;-71
2022/05/08 07:46:25;;;;;;;4.03;1.37;;;;;;;9.83;70.10;101556.94;5052217;28;20262;-72
2022/05/08 07:48:51;;;;;;;7.53;1.30;;;;;;;9.60;69.99;101557.59;5051984;28;20176;-71
2022/05/08 07:51:16;;;;;;;3.40;1.50;;;;;;;9.64;69.66;101553.19;5051989;28;20179;-73
2022/05/08 07:53:41;;;;;;;4.47;1.23;;;;;;;9.68;70.48;101548.81;5052037;28;20197;-72
2022/05/08 07:56:06;;;;;;;5.97;1.50;;;;;;;9.83;70.78;101555.03;5051956;28;20175;-73
2022/05/08 07:58:32;;;;;;;7.90;1.73;;;;;;;10.02;71.13;101554.41;5051909;28;20233;-71
2022/05/08 08:00:58;;;;;;;7.90;2.20;;;;;;;10.10;71.09;101551.09;5055311;28;20179;-71
2022/05/08 08:03:26;;;;;;;8.03;2.40;;;;;;;10.04;70.47;101546.75;5053130;28;20230;-71
2022/05/08 08:05:53;;;;;;;5.97;1.83;;;;;;;10.02;70.93;101546.22;5052039;28;20221;-71
2022/05/08 08:08:22;;;;;;;8.07;1.57;;;;;;;10.21;69.89;101543.66;5051657;28;20512;-72
2022/05/08 08:10:48;;;;;;;3.60;1.20;;;;;;;10.39;70.24;101543.84;5051666;28;20286;-70
2022/05/08 08:13:13;;;;;;;3.43;1.47;;;;;;;10.34;70.31;101552.09;5033754;28;20650;-72
2022/05/08 08:15:39;;;;;;;5.47;1.30;;;;;;;10.34;70.13;101554.00;5033890;28;20187;-70
2022/05/08 08:18:05;;;;;;;2.13;1.10;;;;;;;10.03;69.16;101556.88;5051480;28;20190;-72
2022/05/08 08:20:31;;;;;;;21.63;1.37;;;;;;;10.36;68.75;101560.00;5051535;28;20167;-71
2022/05/08 08:22:56;;;;;;;4.83;1.77;;;;;;;10.50;68.04;101561.00;5048122;28;20713;-71
2022/05/08 08:25:22;;;;;;;4.20;1.23;;;;;;;10.66;66.26;101558.97;5051279;28;20183;-71
2022/05/08 08:27:47;;;;;;;4.20;1.40;;;;;;;10.62;66.37;101560.66;5051207;28;20172;-71
2022/05/08 08:30:13;;;;;;;3.13;1.40;;;;;;;10.36;66.20;101558.09;5051274;28;20197;-71
2022/05/08 08:32:38;;;;;;;4.43;1.50;;;;;;;10.58;66.24;101565.06;5046638;28;21605;-71
2022/05/08 08:35:04;;;;;;;3.00;1.30;;;;;;;11.04;67.58;101565.53;5047344;28;20182;-71
2022/05/08 08:37:29;;;;;;;6.13;1.60;;;;;;;11.20;67.32;101564.28;5050468;28;20175;-71
2022/05/08 08:39:55;;;;;;;3.13;1.10;;;;;;;11.18;66.12;101569.22;5049885;28;20187;-71
2022/05/08 08:42:31;;;;;;;8.07;1.43;;;;;;;11.11;66.01;101566.00;5050345;28;20215;-71
2022/05/08 08:48:06;;;;;;;3.27;1.20;;;;;;;10.95;64.46;101568.03;5050280;28;20274;-71
2022/05/08 08:50:32;;;;;;;3.90;1.30;;;;;;;11.25;64.59;101577.91;5051041;28;20226;-71
2022/05/08 08:53:00;;;;;;;6.13;1.70;;;;;;;11.39;64.58;101572.56;5049921;28;20168;-72
2022/05/08 08:55:26;;;;;;;4.53;1.23;;;;;;;11.43;64.50;101578.25;5049593;28;20258;-70
2022/05/08 08:57:51;;;;;;;3.30;1.43;;;;;;;11.40;64.59;101584.31;5049538;28;20601;-70
2022/05/08 09:00:18;;;;;;;3.27;1.07;;;;;;;11.25;63.68;101577.91;5043896;28;20721;-72
2022/05/08 09:02:44;;;;;;;6.80;1.40;;;;;;;11.26;63.93;101565.84;5049808;28;20887;-71
2022/05/08 09:05:11;;;;;;;1.67;0.80;;;;;;;11.39;65.13;101577.22;5048672;28;20733;-71
2022/05/08 09:07:47;;;;;;;1.63;1.20;;;;;;;11.36;65.17;101577.81;5047530;28;20187;-71
2022/05/08 09:10:15;;;;;;;4.70;1.60;;;;;;;11.25;64.70;101577.06;5049919;28;20179;-71
2022/05/08 09:13:00;;;;;;;5.80;1.73;;;;;;;11.26;65.54;101584.19;5049698;28;20185;-71
2022/05/08 09:15:28;;;;;;;3.70;1.53;;;;;;;11.22;65.84;101581.22;5046048;28;20274;-72
2022/05/08 09:17:56;;;;;;;3.97;1.57;;;;;;;11.34;66.07;101583.56;5046633;28;20217;-71
2022/05/08 09:20:27;;;;;;;6.20;2.00;;;;;;;11.54;64.54;101579.81;5046478;28;20183;-71
2022/05/08 09:23:02;;;;;;;4.63;1.93;;;;;;;11.69;63.83;101581.56;5050451;28;20333;-71
2022/05/08 09:25:46;;;;;;;2.60;1.50;;;;;;;11.66;62.36;101580.22;5050334;28;20229;-71
2022/05/08 09:28:12;;;;;;;5.40;1.83;;;;;;;11.84;64.44;101573.19;5050203;28;20513;-71
2022/05/08 09:31:05;;;;;;;3.40;1.43;;;;;;;12.06;64.80;101578.97;5050506;28;20228;-71
2022/05/08 09:33:37;;;;;;;5.93;2.00;;;;;;;12.19;64.88;101581.00;5050422;28;20507;-71
2022/05/08 09:36:07;;;;;;;4.80;2.33;;;;;;;12.41;65.72;101571.34;5050462;28;20172;-71
2022/05/08 09:38:46;;;;;;;4.63;1.73;;;;;;;12.35;62.09;101567.06;5032517;28;20179;-71
2022/05/08 09:41:14;;;;;;;3.83;1.77;;;;;;;12.51;62.19;101566.56;5050226;28;20260;-71
2022/05/08 09:43:40;;;;;;;4.53;1.73;;;;;;;12.65;62.58;101574.84;5032117;28;20618;-70
2022/05/08 09:46:06;;;;;;;7.67;1.87;;;;;;;12.72;63.72;101569.78;5032382;28;20269;-71
2022/05/08 09:48:34;;;;;;;7.63;2.33;;;;;;;12.91;63.01;101568.97;5050514;28;20241;-71
2022/05/08 09:51:07;;;;;;;3.50;1.97;;;;;;;12.90;61.67;101561.84;5050197;28;20175;-70
2022/05/08 09:53:35;;;;;;;4.60;1.63;;;;;;;13.00;60.88;101567.16;5050282;28;20194;-71
2022/05/08 09:56:04;;;;;;;4.77;2.03;;;;;;;12.74;59.95;101564.03;5050240;28;20207;-72
2022/05/08 09:58:30;;;;;;;8.43;2.03;;;;;;;12.87;60.81;101563.25;5050015;28;20582;-72
2022/05/08 10:00:56;;;;;;;3.70;2.27;;;;;;;12.84;59.81;101563.84;5050134;28;20175;-71
2022/05/08 10:03:21;;;;;;;4.93;2.13;;;;;;;12.84;59.95;101560.28;5050002;28;20207;-71
2022/05/08 10:05:48;;;;;;;3.63;1.80;;;;;;;13.21;60.39;101565.72;5052492;28;20262;-71
2022/05/08 10:08:16;;;;;;;3.17;1.97;;;;;;;13.18;60.36;101560.00;5053776;28;20195;-71
2022/05/08 10:13:55;;;;;;;2.73;1.70;;;;;;;13.41;62.27;101561.78;5053987;28;20194;-70
2022/05/08 10:16:42;;;;;;;3.87;1.60;;;;;;;13.61;62.67;101563.38;5053877;28;20156;-71
2022/05/08 10:19:16;;;;;;;6.90;1.53;;;;;;;13.67;60.10;101573.13;5053972;28;20179;-71
2022/05/08 10:21:56;;;;;;;3.20;1.13;;;;;;;13.53;59.82;101570.34;5054135;28;20244;-71
2022/05/08 10:24:28;;;;;;;5.00;1.67;;;;;;;13.50;59.59;101557.25;5053510;28;20167;-71
2022/05/08 10:27:11;;;;;;;3.10;2.00;;;;;;;13.67;60.31;101554.72;5053532;28;20179;-72
2022/05/08 10:29:57;;;;;;;4.27;0.90;;;;;;;13.87;59.29;101549.91;5053537;28;20266;-71
2022/05/08 10:32:31;;;;;;;3.37;1.60;;;;;;;13.92;59.62;101553.38;5035632;28;20191;-71
2022/05/08 10:35:09;;;;;;;4.63;1.87;;;;;;;14.14;60.10;101551.81;5053672;28;20554;-72
2022/05/08 10:37:34;;;;;;;4.33;2.03;;;;;;;13.89;56.36;101555.94;5053323;28;20209;-71
2022/05/08 10:40:01;;;;;;;3.67;1.40;;;;;;;14.09;57.68;101551.94;5053327;28;20205;-72
2022/05/08 10:42:33;;;;;;;6.50;1.67;;;;;;;14.19;56.18;101555.28;5053219;28;20202;-72
2022/05/08 10:45:00;;;;;;;3.57;1.63;;;;;;;13.93;55.81;101551.44;5053257;28;20175;-72
2022/05/08 10:47:31;;;;;;;3.33;1.40;;;;;;;14.00;56.19;101554.59;5052159;28;20175;-72
2022/05/08 10:49:57;;;;;;;2.90;1.57;;;;;;;14.18;56.80;101552.84;5052750;28;20175;-71
2022/05/08 10:52:22;;;;;;;3.67;1.63;;;;;;;14.45;56.15;101554.72;5052656;28;20545;-71
2022/05/08 10:54:58;;;;;;;2.53;1.33;;;;;;;14.54;54.73;101553.69;5052369;28;20536;-72
2022/05/08 10:57:29;;;;;;;3.30;1.53;;;;;;;14.62;55.08;101552.16;5052407;28;20550;-72
2022/05/08 10:59:55;;;;;;;2.20;0.90;;;;;;;14.55;54.17;101551.75;5052467;28;20190;-71
2022/05/08 11:02:40;;;;;;;3.63;1.80;;;;;;;14.71;56.13;101543.94;5052434;28;20651;-71
2022/05/08 11:05:10;;;;;;;3.90;1.47;;;;;;;15.04;55.56;101544.47;5052436;28;20191;-71
2022/05/08 11:07:46;;;;;;;2.37;1.07;;;;;;;15.21;54.02;101552.88;5052452;28;20406;-71
2022/05/08 11:10:16;;;;;;;5.53;1.60;;;;;;;15.04;53.33;101547.25;5052690;28;20175;-72
2022/05/08 11:13:02;;;;;;;3.27;1.20;;;;;;;15.37;54.07;101548.59;5052793;28;20257;-72
2022/05/08 11:15:43;;;;;;;1.93;0.70;;;;;;;15.51;53.08;101554.00;5039043;28;20197;-71
2022/05/08 11:18:11;;;;;;;6.30;2.10;;;;;;;15.28;53.11;101549.66;5051640;28;20183;-71
2022/05/08 11:20:43;;;;;;;5.10;1.70;;;;;;;15.28;51.13;101552.41;5045949;28;20628;-71
2022/05/08 11:23:15;;;;;;;2.90;1.47;;;;;;;15.12;51.81;101563.00;5052320;28;20199;-71
2022/05/08 11:25:44;;;;;;;4.70;1.57;;;;;;;15.44;52.86;101548.94;5052801;28;20639;-71
2022/05/08 11:28:14;;;;;;;3.27;1.40;;;;;;;15.50;51.36;101549.63;5052611;28;20187;-71
2022/05/08 11:30:40;;;;;;;2.87;1.73;;;;;;;15.66;50.81;101541.78;5052754;28;20510;-72
2022/05/08 11:36:04;;;;;;;6.13;2.50;;;;;;;15.94;49.64;101537.63;5052700;28;20643;-70
2022/05/08 11:38:48;;;;;;;3.53;1.23;;;;;;;16.02;50.55;101545.09;5052151;28;20627;-72
2022/05/08 11:41:21;;;;;;;5.80;1.23;;;;;;;16.31;49.52;101540.94;5052502;28;20680;-72
2022/05/08 11:43:49;;;;;;;4.17;1.50;;;;;;;16.49;51.18;101541.75;5052134;28;20195;-71
2022/05/08 11:46:20;;;;;;;2.40;1.63;;;;;;;15.88;48.34;101541.66;5052377;28;20163;-72
2022/05/08 11:48:47;;;;;;;2.43;1.43;;;;;;;15.71;49.20;101538.84;5052445;28;20177;-71
2022/05/08 11:51:14;;;;;;;3.00;1.70;;;;;;;15.99;50.24;101534.72;5052796;28;20566;-71
2022/05/08 11:53:44;;;;;;;3.50;1.50;;;;;;;15.85;48.72;101536.78;5050762;28;20206;-71
2022/05/08 11:56:30;;;;;;;4.07;1.80;;;;;;;15.98;50.43;101526.78;5052404;28;20179;-72
2022/05/08 11:59:01;;;;;;;5.73;1.70;;;;;;;16.29;49.02;101532.16;5051880;28;20532;-71
2022/05/08 12:01:29;;;;;;;3.57;1.50;;;;;;;16.36;48.52;101527.00;5052878;28;20229;-71